Time;durP1;ratioP1;P1;durP2;ratioP2;P2;SDS_P1;SDS_P2;PMS_P1;PMS_P2;Temp;Humidity;BMP_temperature;BMP_pressure;BME280_temperature;BME280_humidity;BME280_pressure;Samples;Min_cycle;Max_cycle;Signal;HPM_P1;HPM_P2
2022/07/21 00:00:38;;;;;;;20.15;5.72;;;;;;;23.12;55.16;100470.25;5049316;28;20119;-72
2022/07/21 00:03:04;;;;;;;15.52;5.60;;;;;;;22.96;55.51;100446.06;5049406;28;20476;-74
2022/07/21 00:05:30;;;;;;;17.60;5.57;;;;;;;23.01;55.69;100467.31;5049146;28;20031;-74
2022/07/21 00:07:56;;;;;;;18.25;5.80;;;;;;;22.95;55.94;100449.03;5049279;28;20087;-74
2022/07/21 00:10:24;;;;;;;17.30;5.10;;;;;;;22.94;56.42;100461.88;5033347;28;20051;-73
2022/07/21 00:12:49;;;;;;;19.23;5.50;;;;;;;22.90;56.10;100459.75;5052841;28;20021;-74
2022/07/21 00:15:17;;;;;;;18.92;5.53;;;;;;;22.84;56.36;100466.06;5052714;28;20472;-73
2022/07/21 00:17:43;;;;;;;19.15;5.63;;;;;;;22.82;56.25;100466.28;5052869;28;20025;-73
2022/07/21 00:20:10;;;;;;;19.05;5.25;;;;;;;22.79;56.70;100472.16;5034694;28;20056;-73
2022/07/21 00:22:36;;;;;;;18.33;5.72;;;;;;;22.73;56.07;100474.91;5052875;28;20492;-74
2022/07/21 00:25:04;;;;;;;14.35;5.13;;;;;;;22.66;56.30;100463.13;5052840;28;20057;-73
2022/07/21 00:27:29;;;;;;;12.98;4.90;;;;;;;22.61;56.33;100461.03;5052287;28;20044;-74
2022/07/21 00:29:55;;;;;;;14.05;4.43;;;;;;;22.59;56.34;100470.47;5052693;28;20341;-74
2022/07/21 00:32:20;;;;;;;14.57;4.93;;;;;;;22.55;56.57;100466.47;5052537;28;20017;-73
2022/07/21 00:34:46;;;;;;;13.18;3.90;;;;;;;22.51;56.55;100470.66;5052470;28;20055;-72
2022/07/21 00:37:11;;;;;;;19.90;4.85;;;;;;;22.47;56.87;100464.72;5052339;28;20051;-74
2022/07/21 00:39:38;;;;;;;17.80;4.70;;;;;;;22.45;56.92;100475.06;5052451;28;20033;-74
2022/07/21 00:42:04;;;;;;;14.93;4.40;;;;;;;22.37;57.25;100458.81;5052549;28;20067;-73
2022/07/21 00:44:31;;;;;;;11.63;4.97;;;;;;;22.42;57.46;100474.59;5052246;28;20454;-74
2022/07/21 00:46:56;;;;;;;14.43;4.72;;;;;;;22.41;57.34;100478.41;5051993;28;20021;-74
2022/07/21 00:49:22;;;;;;;11.65;4.88;;;;;;;22.38;57.42;100482.41;5033951;28;20032;-75
2022/07/21 00:51:48;;;;;;;11.85;4.55;;;;;;;22.37;57.53;100471.66;5052135;28;20066;-73
2022/07/21 00:54:16;;;;;;;9.05;4.18;;;;;;;22.28;57.66;100466.38;5052056;28;20224;-74
2022/07/21 00:56:42;;;;;;;19.17;4.65;;;;;;;22.24;58.35;100459.66;5033876;28;20101;-74
2022/07/21 00:59:08;;;;;;;13.50;4.32;;;;;;;22.27;59.32;100459.25;5052151;28;20419;-74
2022/07/21 01:01:33;;;;;;;12.25;4.60;;;;;;;22.35;59.26;100474.63;5051957;28;20151;-73
2022/07/21 01:03:59;;;;;;;14.70;3.92;;;;;;;22.33;58.90;100469.34;5051927;28;20036;-72
2022/07/21 01:06:25;;;;;;;16.25;4.93;;;;;;;22.32;58.60;100461.34;5051832;28;20025;-73
2022/07/21 01:08:51;;;;;;;20.20;4.68;;;;;;;22.36;58.47;100470.81;5051936;28;20037;-73
2022/07/21 01:11:18;;;;;;;11.68;4.78;;;;;;;22.37;57.80;100468.94;5051862;28;20029;-72
2022/07/21 01:13:44;;;;;;;16.77;4.72;;;;;;;22.33;57.94;100463.88;5051849;28;20345;-75
2022/07/21 01:16:10;;;;;;;14.30;4.70;;;;;;;22.32;57.34;100459.44;5051712;28;20036;-73
2022/07/21 01:18:36;;;;;;;9.85;4.47;;;;;;;22.38;57.20;100466.00;5051786;28;20025;-73
2022/07/21 01:21:37;;;;;;;13.50;4.25;;;;;;;22.33;57.34;100472.09;5051065;28;20040;-74
2022/07/21 01:24:04;;;;;;;12.93;4.55;;;;;;;22.09;57.37;100442.56;5037994;28;20187;-73
2022/07/21 01:26:31;;;;;;;11.85;5.03;;;;;;;22.10;57.28;100454.34;5052309;28;20032;-74
2022/07/21 01:28:57;;;;;;;16.85;5.38;;;;;;;22.17;56.91;100466.13;5052320;28;20468;-74
2022/07/21 01:31:23;;;;;;;10.90;4.95;;;;;;;22.13;56.63;100459.41;5052336;28;20036;-73
2022/07/21 01:33:50;;;;;;;8.93;4.65;;;;;;;22.11;56.67;100458.75;5052203;28;20071;-73
2022/07/21 01:36:16;;;;;;;10.80;5.78;;;;;;;22.00;56.74;100440.25;5052227;28;20036;-73
2022/07/21 01:41:28;;;;;;;11.60;4.68;;;;;;;22.00;56.43;100460.22;5052227;28;20046;-73
2022/07/21 01:43:55;;;;;;;11.57;4.95;;;;;;;21.97;56.54;100457.91;5051761;28;20041;-74
2022/07/21 01:46:20;;;;;;;11.95;5.03;;;;;;;21.89;56.66;100458.06;5034017;28;20119;-74
2022/07/21 01:48:46;;;;;;;11.73;4.78;;;;;;;21.91;56.95;100471.50;5051853;28;20113;-74
2022/07/21 01:51:11;;;;;;;16.25;5.05;;;;;;;21.78;57.14;100455.91;5034103;28;20124;-73
2022/07/21 01:53:38;;;;;;;19.83;5.40;;;;;;;21.74;57.34;100456.53;5051702;28;20033;-74
2022/07/21 01:56:04;;;;;;;18.83;6.10;;;;;;;21.71;57.15;100465.09;5051876;28;20029;-75
2022/07/21 01:58:30;;;;;;;15.48;5.03;;;;;;;21.62;57.36;100461.69;5051678;28;20057;-74
2022/07/21 02:00:56;;;;;;;16.88;5.88;;;;;;;21.60;57.57;100466.50;5051859;28;20040;-74
2022/07/21 02:03:22;;;;;;;12.75;4.60;;;;;;;21.53;57.61;100465.63;5051984;28;20353;-73
2022/07/21 02:05:47;;;;;;;10.35;4.57;;;;;;;21.52;57.85;100474.88;5051477;28;20039;-74
2022/07/21 02:08:13;;;;;;;14.45;5.10;;;;;;;21.47;58.09;100476.53;5051699;28;20036;-74
2022/07/21 02:10:38;;;;;;;15.20;5.43;;;;;;;21.41;58.25;100482.78;5051649;28;20494;-74
2022/07/21 02:13:04;;;;;;;27.20;5.57;;;;;;;21.41;57.98;100489.06;5033497;28;20033;-74
2022/07/21 02:15:30;;;;;;;18.15;5.40;;;;;;;21.30;57.57;100481.44;5051599;28;20040;-73
2022/07/21 02:17:57;;;;;;;15.68;5.18;;;;;;;21.34;57.52;100484.59;5051278;28;20115;-74
2022/07/21 02:20:23;;;;;;;17.63;4.93;;;;;;;21.27;57.31;100486.44;5051128;28;20086;-74
2022/07/21 02:22:48;;;;;;;15.40;5.40;;;;;;;21.29;57.06;100489.81;5030965;28;20030;-74
2022/07/21 02:25:14;;;;;;;11.50;4.38;;;;;;;21.26;57.06;100487.50;5020388;28;20028;-75
2022/07/21 02:27:40;;;;;;;13.02;5.05;;;;;;;21.15;57.15;100475.22;5022927;28;20278;-74
2022/07/21 02:30:06;;;;;;;17.83;5.07;;;;;;;21.07;57.19;100464.47;5019625;28;20037;-74
2022/07/21 02:32:32;;;;;;;15.55;4.93;;;;;;;21.14;57.35;100478.16;5016471;28;20038;-74
2022/07/21 02:34:57;;;;;;;16.27;4.95;;;;;;;21.14;57.97;100480.88;5021597;28;20101;-74
2022/07/21 02:37:23;;;;;;;13.32;4.95;;;;;;;21.14;58.08;100481.75;5016313;28;20036;-75
2022/07/21 02:39:49;;;;;;;14.55;5.00;;;;;;;21.15;58.02;100482.59;5019576;28;20112;-76
2022/07/21 02:42:15;;;;;;;13.73;4.93;;;;;;;21.14;58.26;100483.63;5014083;28;20037;-74
2022/07/21 02:44:40;;;;;;;18.05;5.25;;;;;;;21.14;58.81;100491.78;5011404;28;20484;-74
2022/07/21 02:47:06;;;;;;;14.30;4.80;;;;;;;21.14;58.69;100481.75;5021863;28;20040;-75
2022/07/21 02:49:32;;;;;;;18.38;4.55;;;;;;;21.10;58.89;100482.34;5030908;28;20021;-73
2022/07/21 02:51:58;;;;;;;17.70;4.35;;;;;;;21.02;58.73;100480.59;5030236;28;20029;-74
2022/07/21 02:54:23;;;;;;;15.18;4.90;;;;;;;21.05;58.81;100479.38;5029489;28;20041;-74
2022/07/21 02:56:49;;;;;;;16.63;5.47;;;;;;;21.04;59.32;100491.31;5020565;28;20728;-73
2022/07/21 02:59:14;;;;;;;18.27;5.22;;;;;;;21.02;59.45;100493.41;5019169;28;20484;-73
2022/07/21 03:01:40;;;;;;;12.82;5.38;;;;;;;20.98;59.98;100492.94;5024914;28;20028;-73
2022/07/21 03:04:05;;;;;;;18.52;5.80;;;;;;;20.95;60.11;100487.88;5030760;28;20480;-73
2022/07/21 03:06:31;;;;;;;15.75;4.95;;;;;;;20.89;60.36;100487.81;5030556;28;20087;-74
2022/07/21 03:08:56;;;;;;;13.52;4.82;;;;;;;20.85;60.63;100491.94;5030578;28;20042;-73
2022/07/21 03:11:22;;;;;;;15.52;4.93;;;;;;;20.83;60.91;100485.84;5030705;28;20026;-73
2022/07/21 03:13:47;;;;;;;21.00;5.88;;;;;;;20.77;61.04;100482.03;5030423;28;20033;-74
2022/07/21 03:16:12;;;;;;;12.65;4.78;;;;;;;20.75;61.33;100488.72;5030578;28;20476;-74
2022/07/21 03:18:38;;;;;;;17.40;5.90;;;;;;;20.76;61.45;100490.41;5030149;28;20033;-74
2022/07/21 03:21:04;;;;;;;17.38;5.25;;;;;;;20.68;62.10;100472.31;5030408;28;20056;-74
2022/07/21 03:23:29;;;;;;;13.05;4.93;;;;;;;20.73;61.54;100488.91;5030385;28;20132;-73
2022/07/21 03:25:55;;;;;;;13.60;4.95;;;;;;;20.78;60.70;100491.03;5030356;28;20029;-74
2022/07/21 03:28:20;;;;;;;16.58;5.47;;;;;;;20.79;61.32;100490.84;5030525;28;20021;-73
2022/07/21 03:30:45;;;;;;;15.38;5.10;;;;;;;20.84;61.13;100493.84;5012665;28;20026;-74
2022/07/21 03:33:11;;;;;;;17.08;5.70;;;;;;;20.75;61.14;100481.38;5030501;28;20585;-75
2022/07/21 03:35:36;;;;;;;13.55;5.10;;;;;;;20.81;61.11;100485.19;5030510;28;20036;-75
2022/07/21 03:38:03;;;;;;;20.23;6.05;;;;;;;20.85;61.49;100487.34;5030830;28;20030;-74
2022/07/21 03:40:31;;;;;;;15.10;5.45;;;;;;;20.86;61.50;100494.47;5030673;28;20045;-74
2022/07/21 03:42:59;;;;;;;18.90;5.75;;;;;;;20.84;62.18;100490.25;5030351;28;20073;-74
2022/07/21 03:45:29;;;;;;;15.73;4.72;;;;;;;20.80;61.91;100483.53;5025959;28;20082;-72
2022/07/21 03:47:55;;;;;;;14.90;5.07;;;;;;;20.77;62.07;100481.19;5016328;28;20037;-74
2022/07/21 03:50:21;;;;;;;27.10;5.70;;;;;;;20.81;62.63;100487.94;5016483;28;20026;-73
2022/07/21 03:52:47;;;;;;;23.23;5.63;;;;;;;20.83;62.25;100489.41;5016548;28;20021;-74
2022/07/21 03:55:20;;;;;;;23.23;5.70;;;;;;;20.84;62.19;100484.81;5034091;28;20098;-74
2022/07/21 03:57:47;;;;;;;13.32;5.43;;;;;;;20.89;62.46;100487.81;5034066;28;20059;-74
2022/07/21 04:00:16;;;;;;;29.63;5.85;;;;;;;20.92;63.19;100493.69;5033958;28;20033;-74
2022/07/21 04:02:44;;;;;;;13.85;5.15;;;;;;;20.99;62.63;100493.78;5033794;28;20026;-74
2022/07/21 04:05:11;;;;;;;24.95;5.57;;;;;;;21.09;61.42;100495.13;5034296;28;20041;-74
2022/07/21 04:07:39;;;;;;;23.67;6.00;;;;;;;21.15;60.61;100498.97;5033789;28;20029;-74
2022/07/21 04:10:05;;;;;;;33.67;7.47;;;;;;;21.20;61.66;100499.19;5033922;28;20029;-75
2022/07/21 04:12:31;;;;;;;31.83;6.63;;;;;;;21.23;61.37;100498.78;5033603;28;20025;-74
2022/07/21 04:14:56;;;;;;;31.77;6.72;;;;;;;21.33;61.72;100500.13;5015899;28;20029;-74
2022/07/21 04:17:22;;;;;;;27.08;5.55;;;;;;;21.46;60.07;100502.09;5033553;28;20032;-74
2022/07/21 04:19:48;;;;;;;39.90;6.90;;;;;;;21.52;60.80;100496.69;5033555;28;20029;-74
2022/07/21 04:22:13;;;;;;;15.77;5.53;;;;;;;21.68;59.92;100499.09;5033120;28;20026;-75
2022/07/21 04:24:39;;;;;;;35.70;5.60;;;;;;;21.77;59.47;100494.34;5014839;28;20071;-73
2022/07/21 04:27:04;;;;;;;34.03;7.43;;;;;;;21.88;59.70;100486.41;5015181;28;20032;-74
2022/07/21 04:29:30;;;;;;;31.35;6.95;;;;;;;22.07;59.82;100507.53;5032845;28;20456;-73
2022/07/21 04:31:55;;;;;;;26.88;5.93;;;;;;;22.06;58.51;100483.13;5033148;28;20032;-73
2022/07/21 04:34:21;;;;;;;27.75;6.35;;;;;;;22.33;58.02;100496.69;5015417;28;20029;-73
2022/07/21 04:36:46;;;;;;;19.52;5.47;;;;;;;22.43;57.76;100501.75;5033421;28;20112;-73
2022/07/21 04:39:12;;;;;;;23.17;6.57;;;;;;;22.56;56.72;100498.22;5034613;28;20068;-74
2022/07/21 04:41:37;;;;;;;22.25;6.93;;;;;;;22.70;56.61;100508.16;5053274;28;20033;-73
2022/07/21 04:44:03;;;;;;;26.10;6.78;;;;;;;22.80;56.95;100503.97;5053127;28;20037;-73
2022/07/21 04:46:28;;;;;;;39.03;7.22;;;;;;;22.96;57.04;100517.19;5052893;28;20511;-74
2022/07/21 04:48:54;;;;;;;39.97;7.65;;;;;;;22.93;56.47;100481.22;5053659;28;20133;-70
2022/07/21 04:51:19;;;;;;;32.05;6.55;;;;;;;23.16;55.54;100498.06;5055240;28;20032;-69
2022/07/21 04:53:45;;;;;;;35.83;8.75;;;;;;;23.18;57.60;100477.63;5054945;28;20395;-70
2022/07/21 04:56:10;;;;;;;23.17;7.15;;;;;;;23.49;57.14;100510.69;5053963;28;20036;-69
2022/07/21 04:58:36;;;;;;;26.60;6.93;;;;;;;23.61;56.13;100509.00;5053402;28;20041;-73
2022/07/21 05:01:01;;;;;;;15.55;4.93;;;;;;;23.72;54.52;100497.38;5053034;28;20521;-74
2022/07/21 05:03:27;;;;;;;19.08;4.63;;;;;;;23.86;53.50;100499.00;5041503;28;20039;-74
2022/07/21 05:08:51;;;;;;;29.52;4.95;;;;;;;24.25;52.62;100517.22;5293901;23;20058;-70
2022/07/21 05:11:17;;;;;;;19.13;5.78;;;;;;;24.37;51.96;100510.81;5010245;28;20030;-71
2022/07/21 05:13:42;;;;;;;23.15;5.38;;;;;;;24.48;52.29;100501.06;5010868;28;20553;-71
2022/07/21 05:16:08;;;;;;;29.95;5.78;;;;;;;24.74;51.18;100522.88;5011271;28;20059;-72
2022/07/21 05:18:33;;;;;;;17.63;4.93;;;;;;;24.87;50.56;100525.53;5011879;28;20034;-71
2022/07/21 05:20:59;;;;;;;23.33;5.80;;;;;;;25.00;50.29;100522.69;5010391;28;20052;-71
2022/07/21 05:23:24;;;;;;;15.32;4.80;;;;;;;25.12;50.67;100515.41;5011433;28;20496;-71
2022/07/21 05:25:50;;;;;;;18.58;5.30;;;;;;;25.29;50.01;100526.66;5011660;28;20042;-71
2022/07/21 05:28:15;;;;;;;22.02;4.32;;;;;;;25.45;49.83;100518.75;5011657;28;20105;-72
2022/07/21 05:30:41;;;;;;;28.90;5.80;;;;;;;25.67;48.86;100521.91;5010210;28;20033;-71
2022/07/21 05:33:06;;;;;;;18.83;4.82;;;;;;;25.85;48.04;100510.91;5011467;28;20030;-71
2022/07/21 05:35:32;;;;;;;20.02;5.50;;;;;;;26.12;47.15;100524.13;5011659;28;20030;-72
2022/07/21 05:37:57;;;;;;;19.38;4.80;;;;;;;26.25;46.65;100499.22;5011639;28;20056;-73
2022/07/21 05:40:23;;;;;;;30.73;5.70;;;;;;;26.46;45.80;100497.88;5011755;28;20034;-72
2022/07/21 05:42:48;;;;;;;30.52;5.43;;;;;;;26.63;45.70;100493.41;5011546;28;20404;-66
2022/07/21 05:45:14;;;;;;;19.23;4.90;;;;;;;26.94;45.46;100522.59;5011904;28;20036;-66
2022/07/21 05:47:41;;;;;;;16.70;4.80;;;;;;;27.18;44.10;100519.63;5011731;28;20113;-66
2022/07/21 05:50:07;;;;;;;14.85;5.15;;;;;;;27.34;43.42;100507.13;5012321;28;20026;-66
2022/07/21 05:52:33;;;;;;;17.20;4.68;;;;;;;27.65;43.09;100518.63;5012127;28;20022;-66
2022/07/21 05:54:58;;;;;;;13.40;5.10;;;;;;;27.90;42.24;100523.91;5011998;28;20076;-66
2022/07/21 05:57:24;;;;;;;10.10;4.45;;;;;;;28.07;41.19;100520.16;5011685;28;20065;-67
2022/07/21 05:59:49;;;;;;;6.38;4.55;;;;;;;28.30;40.64;100522.00;5011584;28;20061;-65
2022/07/21 06:02:15;;;;;;;8.45;4.60;;;;;;;28.54;40.00;100521.69;5011954;28;20504;-65
2022/07/21 06:04:40;;;;;;;9.18;4.65;;;;;;;28.67;39.76;100519.72;5011096;28;20472;-66
2022/07/21 06:07:06;;;;;;;8.10;4.22;;;;;;;28.90;39.64;100525.13;5009325;28;20032;-66
2022/07/21 06:09:31;;;;;;;14.05;4.85;;;;;;;29.07;39.37;100532.38;5011063;28;20068;-66
2022/07/21 06:11:57;;;;;;;9.55;4.40;;;;;;;29.24;39.38;100533.22;5011148;28;20030;-66
2022/07/21 06:14:22;;;;;;;10.98;4.80;;;;;;;29.41;38.40;100538.78;5011368;28;20026;-67
2022/07/21 06:16:48;;;;;;;7.40;4.00;;;;;;;29.54;38.10;100535.66;5011672;28;20079;-65
2022/07/21 06:19:14;;;;;;;8.40;3.95;;;;;;;29.65;37.67;100538.34;5011342;28;20106;-66
2022/07/21 06:21:40;;;;;;;7.30;4.78;;;;;;;29.72;37.77;100529.88;5011419;28;20468;-65
2022/07/21 06:24:07;;;;;;;9.20;4.38;;;;;;;29.81;37.49;100536.66;5011487;28;20090;-66
2022/07/21 06:26:32;;;;;;;6.30;4.10;;;;;;;29.93;37.66;100529.09;5011695;28;20100;-67
2022/07/21 06:28:58;;;;;;;6.55;4.25;;;;;;;30.07;37.52;100544.22;5009908;28;20427;-67
2022/07/21 06:31:24;;;;;;;4.80;4.10;;;;;;;30.16;37.34;100531.59;5011186;28;20084;-65
2022/07/21 06:33:49;;;;;;;6.40;3.97;;;;;;;30.28;37.07;100527.63;5011226;28;20033;-66
2022/07/21 06:36:14;;;;;;;9.65;4.30;;;;;;;30.36;37.03;100515.28;5011035;28;20048;-66
2022/07/21 06:38:40;;;;;;;11.75;4.35;;;;;;;30.51;36.90;100524.63;5010972;28;20049;-66
2022/07/21 06:41:06;;;;;;;7.72;4.13;;;;;;;30.63;37.05;100526.38;5008956;28;20073;-66
2022/07/21 06:43:33;;;;;;;11.90;4.55;;;;;;;30.75;36.94;100522.38;5010865;28;20045;-66
2022/07/21 06:45:58;;;;;;;7.35;4.18;;;;;;;30.89;36.34;100528.34;5011023;28;20480;-66
2022/07/21 06:48:24;;;;;;;6.53;4.35;;;;;;;30.95;35.94;100511.50;5010899;28;20025;-66
2022/07/21 06:50:50;;;;;;;8.15;4.28;;;;;;;31.11;35.81;100523.59;5010902;28;20034;-67
2022/07/21 06:53:17;;;;;;;7.00;3.70;;;;;;;31.28;35.36;100527.94;5010390;28;20033;-72
2022/07/21 06:55:42;;;;;;;6.15;3.72;;;;;;;31.42;34.98;100525.53;5011507;28;20022;-73
2022/07/21 06:58:09;;;;;;;10.05;4.00;;;;;;;31.55;34.55;100534.22;5011294;28;20038;-72
2022/07/21 07:00:35;;;;;;;6.13;3.63;;;;;;;31.66;34.36;100518.50;5009960;28;20048;-72
2022/07/21 07:03:00;;;;;;;8.52;4.03;;;;;;;31.71;34.25;100522.13;5011135;28;20108;-65
2022/07/21 07:05:27;;;;;;;7.03;4.05;;;;;;;31.79;33.98;100527.16;5010676;28;20038;-72
2022/07/21 07:07:53;;;;;;;10.63;4.03;;;;;;;31.92;33.98;100525.91;5011015;28;20119;-73
2022/07/21 07:10:18;;;;;;;8.38;3.88;;;;;;;32.04;33.96;100530.13;5010891;28;20049;-66
2022/07/21 07:12:44;;;;;;;9.93;4.28;;;;;;;32.13;34.07;100511.00;5010458;28;20030;-66
2022/07/21 07:15:09;;;;;;;5.90;3.90;;;;;;;32.30;34.05;100520.81;5010499;28;20033;-65
2022/07/21 07:17:35;;;;;;;5.35;4.20;;;;;;;32.35;33.81;100507.00;5010524;28;20037;-66
2022/07/21 07:20:00;;;;;;;9.25;4.53;;;;;;;32.46;33.26;100510.59;5009944;28;20120;-66
2022/07/21 07:22:26;;;;;;;7.43;4.50;;;;;;;32.51;32.98;100519.81;5010715;28;20022;-65
2022/07/21 07:24:51;;;;;;;6.95;4.10;;;;;;;32.60;32.97;100520.13;5010826;28;20030;-65
2022/07/21 07:27:17;;;;;;;9.65;4.70;;;;;;;32.64;32.69;100507.34;5010626;28;20033;-66
2022/07/21 07:29:42;;;;;;;7.03;4.43;;;;;;;32.77;33.30;100522.63;5010501;28;20026;-66
2022/07/21 07:32:08;;;;;;;5.07;3.60;;;;;;;32.80;32.64;100516.53;5010326;28;20101;-66
2022/07/21 07:34:34;;;;;;;7.28;4.43;;;;;;;32.78;32.53;100500.13;5010264;28;20040;-65
2022/07/21 07:37:00;;;;;;;8.55;4.15;;;;;;;33.00;32.28;100519.38;5010375;28;20069;-65
2022/07/21 07:39:25;;;;;;;7.88;4.07;;;;;;;33.03;32.63;100516.03;5010144;28;20460;-66
2022/07/21 07:41:51;;;;;;;6.35;3.95;;;;;;;33.09;32.40;100517.72;5010453;28;20060;-66
2022/07/21 07:44:16;;;;;;;9.70;3.85;;;;;;;33.16;32.11;100513.56;5010310;28;20026;-66
2022/07/21 07:46:41;;;;;;;5.70;3.40;;;;;;;33.26;32.04;100509.91;5010266;28;20034;-65
2022/07/21 07:49:08;;;;;;;4.55;3.97;;;;;;;33.30;31.98;100511.88;5008491;28;20025;-65
2022/07/21 07:51:33;;;;;;;7.68;3.95;;;;;;;33.36;31.66;100518.31;5008761;28;20036;-64
2022/07/21 07:54:02;;;;;;;5.75;3.90;;;;;;;33.41;31.67;100516.38;5009991;28;20037;-66
2022/07/21 07:56:27;;;;;;;4.60;3.92;;;;;;;33.40;31.62;100509.13;5010054;28;20117;-65
2022/07/21 07:58:52;;;;;;;6.53;3.95;;;;;;;33.47;31.46;100511.63;5010085;28;20029;-67
2022/07/21 08:01:18;;;;;;;7.70;4.38;;;;;;;33.54;31.36;100503.81;5010071;28;20113;-65
2022/07/21 08:03:43;;;;;;;8.95;3.70;;;;;;;33.61;31.72;100508.00;5009906;28;20041;-65
2022/07/21 08:06:09;;;;;;;10.43;4.10;;;;;;;33.66;31.54;100491.25;5008749;28;20432;-66
2022/07/21 08:08:34;;;;;;;5.28;3.97;;;;;;;33.81;31.32;100516.28;5009887;28;20385;-66
2022/07/21 08:11:00;;;;;;;6.95;3.90;;;;;;;33.85;31.38;100517.38;5009997;28;20423;-66
2022/07/21 08:13:26;;;;;;;6.97;3.83;;;;;;;33.96;30.70;100521.00;5009633;28;20030;-66
2022/07/21 08:15:52;;;;;;;7.47;3.53;;;;;;;33.89;30.73;100487.91;5008720;28;20048;-65
2022/07/21 08:18:18;;;;;;;4.75;3.67;;;;;;;34.13;30.47;100514.00;5009897;28;20026;-66
2022/07/21 08:20:45;;;;;;;6.68;3.45;;;;;;;34.20;30.32;100513.66;5009923;28;20100;-65
2022/07/21 08:23:11;;;;;;;6.40;4.10;;;;;;;34.24;29.95;100517.59;5009619;28;20743;-65
2022/07/21 08:25:36;;;;;;;5.40;3.60;;;;;;;34.25;29.67;100506.16;5009936;28;20113;-66
2022/07/21 08:28:03;;;;;;;7.00;3.90;;;;;;;34.36;29.35;100521.72;5009729;28;20088;-66
2022/07/21 08:30:29;;;;;;;7.22;3.47;;;;;;;34.38;29.14;100508.34;5010596;28;20038;-73
2022/07/21 08:32:54;;;;;;;3.78;3.45;;;;;;;34.40;29.65;100506.09;5013280;28;20034;-66
2022/07/21 08:35:20;;;;;;;10.15;3.45;;;;;;;34.50;30.16;100505.22;5012906;28;20022;-67
2022/07/21 08:37:54;;;;;;;7.35;4.53;;;;;;;34.54;29.58;100500.75;5012508;28;20113;-67
2022/07/21 08:40:23;;;;;;;7.55;3.75;;;;;;;34.51;29.75;100507.72;5013272;28;20038;-65
2022/07/21 08:42:48;;;;;;;6.10;3.65;;;;;;;34.57;30.01;100511.31;5011922;28;20666;-65
2022/07/21 08:45:14;;;;;;;11.43;3.85;;;;;;;34.52;29.79;100487.09;5013125;28;20045;-65
2022/07/21 08:47:40;;;;;;;9.77;3.55;;;;;;;34.61;29.94;100504.03;5013233;28;20544;-73
2022/07/21 08:50:08;;;;;;;6.07;3.65;;;;;;;34.55;29.65;100496.81;5013374;28;20022;-73
2022/07/21 08:52:33;;;;;;;6.43;4.07;;;;;;;34.65;29.44;100496.75;5013309;28;20034;-73
2022/07/21 08:55:00;;;;;;;6.35;4.10;;;;;;;34.63;29.37;100497.03;5013639;28;20026;-72
2022/07/21 08:57:26;;;;;;;9.32;4.03;;;;;;;34.69;29.56;100497.88;5013547;28;20037;-73
2022/07/21 08:59:51;;;;;;;4.97;4.25;;;;;;;34.75;29.68;100499.47;5013383;28;20026;-73
2022/07/21 09:02:32;;;;;;;7.60;4.10;;;;;;;34.81;30.02;100500.31;5013320;28;20380;-72
2022/07/21 09:04:57;;;;;;;7.03;3.53;;;;;;;34.79;29.48;100491.38;5013446;28;20460;-73
2022/07/21 09:07:23;;;;;;;7.43;3.70;;;;;;;34.86;29.48;100494.69;5013112;28;20033;-73
2022/07/21 09:10:03;;;;;;;6.88;3.63;;;;;;;34.81;29.11;100483.56;5013056;28;20049;-73
2022/07/21 09:12:29;;;;;;;7.72;4.25;;;;;;;34.89;29.11;100489.41;5011714;28;20077;-71
2022/07/21 09:15:13;;;;;;;6.35;3.72;;;;;;;34.96;28.58;100498.25;5013071;28;20030;-72
2022/07/21 09:17:39;;;;;;;4.78;3.58;;;;;;;35.04;28.17;100488.44;5012782;28;20036;-72
2022/07/21 09:20:22;;;;;;;4.50;3.80;;;;;;;35.03;28.06;100490.38;5012775;28;20635;-72
2022/07/21 09:23:12;;;;;;;6.53;3.90;;;;;;;35.04;28.03;100483.69;5012635;28;20025;-73
2022/07/21 09:25:40;;;;;;;6.80;3.92;;;;;;;35.08;28.13;100483.94;5012572;28;20092;-72
2022/07/21 09:28:21;;;;;;;7.60;3.88;;;;;;;35.06;28.33;100470.28;5011949;28;20037;-73
2022/07/21 09:30:58;;;;;;;5.50;3.53;;;;;;;35.08;27.89;100470.00;5011443;28;20041;-72
2022/07/21 09:33:33;;;;;;;5.13;4.10;;;;;;;35.13;27.67;100469.94;5011333;28;20395;-73
2022/07/21 09:36:03;;;;;;;7.38;3.97;;;;;;;35.34;27.91;100479.84;5011525;28;20063;-73
2022/07/21 09:38:30;;;;;;;7.03;3.72;;;;;;;35.36;27.78;100478.41;5011393;28;20030;-73
2022/07/21 09:41:04;;;;;;;8.48;3.92;;;;;;;35.38;27.69;100469.75;5011380;28;20037;-73
2022/07/21 09:43:42;;;;;;;5.63;4.00;;;;;;;35.44;27.65;100466.63;5010589;28;20038;-72
2022/07/21 09:46:19;;;;;;;7.03;3.75;;;;;;;35.52;27.80;100470.75;5009591;28;20072;-73
2022/07/21 09:48:48;;;;;;;5.82;3.58;;;;;;;35.53;27.44;100458.44;5011087;28;20809;-73
2022/07/21 09:51:19;;;;;;;6.70;3.60;;;;;;;35.60;27.71;100459.75;5011046;28;20034;-73
2022/07/21 09:53:50;;;;;;;5.40;3.83;;;;;;;35.64;27.23;100454.41;5011065;28;20037;-74
2022/07/21 09:56:18;;;;;;;6.85;4.05;;;;;;;35.59;26.74;100446.91;5008481;28;20026;-73
2022/07/21 09:58:46;;;;;;;8.35;4.07;;;;;;;35.67;26.68;100453.81;5009232;28;20501;-73
2022/07/21 10:01:12;;;;;;;8.48;4.35;;;;;;;35.65;26.67;100451.31;5010752;28;20025;-73
2022/07/21 10:03:38;;;;;;;9.25;3.90;;;;;;;35.65;26.48;100447.72;5010589;28;20084;-73
2022/07/21 10:06:05;;;;;;;8.05;3.80;;;;;;;35.74;26.23;100448.69;5009315;28;20025;-72
2022/07/21 10:08:34;;;;;;;5.60;3.50;;;;;;;35.61;26.46;100432.66;5006874;28;20045;-73
2022/07/21 10:11:00;;;;;;;5.43;3.63;;;;;;;35.66;26.34;100452.16;5008109;28;20091;-72
2022/07/21 10:13:27;;;;;;;4.53;3.90;;;;;;;35.62;26.32;100446.31;5010383;28;20112;-73
2022/07/21 10:15:54;;;;;;;8.55;4.00;;;;;;;35.63;26.76;100456.38;5009978;28;20133;-65
2022/07/21 10:18:32;;;;;;;5.47;3.33;;;;;;;35.63;27.16;100445.22;5008740;28;20153;-66
2022/07/21 10:21:20;;;;;;;14.18;4.43;;;;;;;35.65;26.51;100448.53;5010318;28;20030;-66
2022/07/21 10:23:46;;;;;;;5.63;3.63;;;;;;;35.67;26.30;100449.06;5000748;28;20076;-66
2022/07/21 10:26:12;;;;;;;6.97;3.63;;;;;;;35.71;27.02;100440.91;5009034;28;20029;-66
2022/07/21 10:28:38;;;;;;;9.50;3.58;;;;;;;35.74;26.54;100435.56;5009207;28;20100;-66
2022/07/21 10:31:22;;;;;;;8.38;3.53;;;;;;;35.81;26.36;100433.28;5006591;28;20034;-67
2022/07/21 10:33:50;;;;;;;7.35;3.83;;;;;;;35.84;26.41;100434.66;5010067;28;20143;-66
2022/07/21 10:36:27;;;;;;;6.28;3.47;;;;;;;35.86;26.32;100433.25;5010056;28;20030;-65
2022/07/21 10:39:17;;;;;;;4.07;3.00;;;;;;;35.89;25.89;100423.44;5009884;28;20488;-66
2022/07/21 10:41:47;;;;;;;6.57;3.47;;;;;;;35.85;25.87;100412.00;5009948;28;20396;-66
2022/07/21 10:44:28;;;;;;;4.85;3.55;;;;;;;35.97;26.39;100419.94;5009861;28;20051;-66
2022/07/21 10:47:05;;;;;;;4.90;3.42;;;;;;;36.01;26.14;100426.63;5008334;28;20037;-66
2022/07/21 10:49:59;;;;;;;5.53;3.30;;;;;;;36.02;26.16;100417.09;5009984;28;20125;-66
2022/07/21 10:52:41;;;;;;;9.85;3.50;;;;;;;36.05;26.46;100424.88;5005677;28;20042;-66
2022/07/21 10:55:09;;;;;;;7.32;3.63;;;;;;;36.09;26.41;100417.56;5007511;28;20073;-66
2022/07/21 10:57:37;;;;;;;8.65;3.55;;;;;;;36.14;26.14;100414.72;5009584;28;20095;-66
2022/07/21 11:00:21;;;;;;;10.80;4.13;;;;;;;36.09;26.35;100403.59;5008486;28;20529;-66
2022/07/21 11:02:56;;;;;;;4.63;3.60;;;;;;;36.09;26.52;100407.25;5009785;28;20083;-65
2022/07/21 11:05:24;;;;;;;11.40;4.22;;;;;;;36.02;26.42;100397.56;5008469;28;20030;-65
2022/07/21 11:08:10;;;;;;;6.70;3.17;;;;;;;36.12;26.13;100401.06;5009544;28;20157;-66
2022/07/21 11:10:40;;;;;;;7.05;4.28;;;;;;;36.04;26.25;100396.13;5009486;28;20475;-64
2022/07/21 11:13:05;;;;;;;6.15;3.88;;;;;;;36.07;26.46;100398.31;5009489;28;20357;-66
2022/07/21 11:15:55;;;;;;;4.93;3.50;;;;;;;36.11;26.33;100390.19;5009683;28;20036;-73
2022/07/21 11:18:23;;;;;;;8.10;3.65;;;;;;;36.15;26.28;100394.03;5009697;28;20053;-74
2022/07/21 11:21:12;;;;;;;4.15;3.40;;;;;;;36.16;26.42;100385.34;5008631;28;20120;-74
2022/07/21 11:23:47;;;;;;;5.53;3.60;;;;;;;36.17;26.10;100378.59;5009683;28;20021;-73
2022/07/21 11:26:15;;;;;;;7.45;3.80;;;;;;;36.23;26.27;100385.78;5008216;28;20034;-73
2022/07/21 11:28:41;;;;;;;5.95;3.42;;;;;;;36.19;26.23;100372.72;5009227;28;20041;-74